Airfield :
LOGIN :

Register | Disclaimer

   EN    FR    IT 

 










Legend :    VFR   Marginal VFR   IFR   Intensive IFR   Very Intensive IFR
Visi :
Ceiling :
>= 8 km
>= 3000ft
5 to 8 km
1000 to 3000 ft
1500m to 5 km
500 to 1000 ft
800 to 1500m
200 to 500 ft
< 800m
< 200 ft
Symbols :   Thunderstorms  Fog  Heavy snow  Heavy precipitations  Wind > 20 kt
SIGMETs :     Misc.  Thunderstorms  Icing  Turbulence  Mountain Waves  Volcanic Ashes






- Airport Elevation : 297 ft
- IATA code : ODB


LEBA - Córdoba

CURRENT METAR :
  • 212130Z AUTO 23006KT 200V270 9999 -RA FEW016 OVC030 18/17 Q1013 RERA

EXPIRED METARs :
  • 212100Z AUTO 28007KT 250V330 3400 +RA FEW004 BKN008 BKN014 19/19 Q1013
  • 212030Z AUTO 25006KT 9999 -RA OVC007 19/18 Q1012
  • 212000Z AUTO 23005KT 200V270 3400 -RA BR BKN005 OVC010 19/18 Q1012
  • 211930Z AUTO 22010KT 200V270 3500 -RA BR SCT009 BKN013 19/18 Q1012
  • 211900Z 23007KT 200V290 4000 -RA BKN013 OVC020 19/18 Q1012

TAF AMD TAF LEBA
Valid from the 21 at 18:00 until the 22 at 15:00 UTC


211836Z 2118/2215 25011KT 9999 SCT025 TX27/2215Z TN15/2206Z
PROB40
TEMPO 2118/2203 3000 RA BKN010
BECMG 2123/2201 VRB02KT



MET'MAP, your aeronautical weather chart ! - Copyright ORBIFLY December 2007 - Disclaimer

ORBIFLY MET'MAP TEAM :

Programming & Development : Alexandra Zaïnal
Original concept : Baudouin d'Aumeries
Technical & hardware support : Manuel Goepfert
Assistance : Marc-Olivier Méhu




SOURCES & CREDITS :

   NOAA